Time;durP1;ratioP1;P1;durP2;ratioP2;P2;SDS_P1;SDS_P2;PMS_P1;PMS_P2;Temp;Humidity;BMP_temperature;BMP_pressure;BME280_temperature;BME280_humidity;BME280_pressure;Samples;Min_cycle;Max_cycle;Signal;HPM_P1;HPM_P2
2024/02/23 00:02:14;;;;;;;0.52;0.52;;;;;;;3.92;100.00;90959.38;5060293;28;20032;-79
2024/02/23 00:04:39;;;;;;;0.63;0.63;;;;;;;3.88;100.00;90950.63;5054781;28;20053;-80
2024/02/23 00:07:05;;;;;;;0.60;0.60;;;;;;;3.84;100.00;90944.47;5057860;28;20033;-80
2024/02/23 00:09:30;;;;;;;0.40;0.40;;;;;;;3.86;100.00;90955.31;5053040;28;20040;-80
2024/02/23 00:11:56;;;;;;;1.75;0.60;;;;;;;3.83;100.00;90955.91;5058242;28;20033;-80
2024/02/23 00:14:21;;;;;;;0.45;0.45;;;;;;;3.83;100.00;90952.50;5048388;28;20094;-80
2024/02/23 00:16:48;;;;;;;0.50;0.50;;;;;;;3.85;100.00;90953.00;5057737;28;20028;-80
2024/02/23 00:19:15;;;;;;;0.50;0.50;;;;;;;3.83;100.00;90955.91;5062271;28;20286;-81
2024/02/23 00:21:42;;;;;;;0.47;0.40;;;;;;;3.84;100.00;90944.47;5053394;28;20068;-80
2024/02/23 00:24:08;;;;;;;0.80;0.60;;;;;;;3.84;100.00;90943.72;5069786;28;20055;-80
2024/02/23 00:26:33;;;;;;;0.50;0.50;;;;;;;3.81;100.00;90942.47;5053058;28;20045;-80
2024/02/23 00:28:59;;;;;;;0.50;0.50;;;;;;;3.80;100.00;90946.09;5048835;28;20041;-80
2024/02/23 00:31:25;;;;;;;0.50;0.50;;;;;;;3.75;100.00;90935.81;5058584;28;20580;-81
2024/02/23 00:33:50;;;;;;;0.40;0.40;;;;;;;3.81;100.00;90941.69;5069675;28;20507;-81
2024/02/23 00:36:16;;;;;;;0.88;0.50;;;;;;;3.70;100.00;90931.47;5056890;28;20041;-82
2024/02/23 00:38:42;;;;;;;0.60;0.60;;;;;;;3.75;100.00;90943.56;5067676;28;20028;-80
2024/02/23 00:41:07;;;;;;;0.60;0.60;;;;;;;3.77;100.00;90938.88;5045393;28;20036;-81
2024/02/23 00:43:42;;;;;;;0.63;0.60;;;;;;;3.75;100.00;90938.41;5047198;28;20032;-81
2024/02/23 00:46:08;;;;;;;1.85;0.70;;;;;;;3.78;100.00;90937.81;5042659;28;20063;-79
2024/02/23 00:48:34;;;;;;;0.60;0.60;;;;;;;3.79;100.00;90931.63;5037650;28;20037;-81
2024/02/23 00:51:02;;;;;;;0.60;0.60;;;;;;;3.77;100.00;90920.78;5059078;28;20028;-81
2024/02/23 00:53:30;;;;;;;0.65;0.65;;;;;;;3.78;100.00;90917.13;5037799;28;20017;-80
2024/02/23 00:55:55;;;;;;;0.50;0.50;;;;;;;3.75;100.00;90918.47;5064532;28;20064;-79
2024/02/23 00:58:21;;;;;;;0.60;0.50;;;;;;;3.71;100.00;90906.38;5045119;28;20049;-80
2024/02/23 01:00:46;;;;;;;0.75;0.70;;;;;;;3.69;100.00;90909.25;5059330;28;20124;-80
2024/02/23 01:03:12;;;;;;;0.70;0.70;;;;;;;3.65;100.00;90903.09;5052385;28;20428;-80
2024/02/23 01:05:39;;;;;;;0.50;0.50;;;;;;;3.66;100.00;90891.69;5035821;28;20472;-80
2024/02/23 01:08:05;;;;;;;0.50;0.50;;;;;;;3.70;100.00;90894.50;5059011;28;20028;-80
2024/02/23 01:10:31;;;;;;;0.40;0.40;;;;;;;3.60;100.00;90887.63;5036257;28;20037;-80
2024/02/23 01:12:57;;;;;;;0.60;0.60;;;;;;;3.62;100.00;90888.13;5039500;28;20045;-81
2024/02/23 01:15:22;;;;;;;0.60;0.60;;;;;;;3.57;100.00;90877.09;5057919;28;20162;-81
2024/02/23 01:17:48;;;;;;;0.80;0.80;;;;;;;3.84;100.00;90882.34;5058318;28;20176;-80
2024/02/23 01:20:14;;;;;;;0.98;0.70;;;;;;;3.84;100.00;90860.88;5067121;28;20037;-81
2024/02/23 01:22:39;;;;;;;0.60;0.60;;;;;;;3.74;100.00;90877.34;5066577;28;20037;-80
2024/02/23 01:25:05;;;;;;;0.70;0.70;;;;;;;3.65;100.00;90868.69;5040335;28;20463;-78
2024/02/23 01:27:31;;;;;;;0.68;0.68;;;;;;;3.62;100.00;90854.47;5043634;28;20705;-80
2024/02/23 01:29:56;;;;;;;0.50;0.50;;;;;;;3.53;100.00;90862.13;5027553;28;20051;-80
2024/02/23 01:32:22;;;;;;;0.73;0.63;;;;;;;3.46;100.00;90853.94;5056879;28;20535;-80
2024/02/23 01:34:48;;;;;;;0.80;0.50;;;;;;;3.49;100.00;90855.19;5065437;28;20044;-80
2024/02/23 01:37:13;;;;;;;0.55;0.55;;;;;;;3.43;100.00;90854.53;5061400;28;20029;-80
2024/02/23 01:39:39;;;;;;;0.60;0.57;;;;;;;3.52;100.00;90845.06;5066831;28;20037;-80
2024/02/23 01:42:04;;;;;;;0.60;0.52;;;;;;;3.33;100.00;90845.09;5069845;28;20503;-79
2024/02/23 01:44:30;;;;;;;0.70;0.70;;;;;;;3.45;100.00;90846.50;5061371;28;20410;-80
2024/02/23 01:46:56;;;;;;;0.43;0.43;;;;;;;3.46;100.00;90848.78;5067589;28;20047;-80
2024/02/23 01:49:22;;;;;;;0.70;0.70;;;;;;;3.40;100.00;90854.31;5060962;28;20059;-81
2024/02/23 01:51:49;;;;;;;0.90;0.90;;;;;;;3.40;100.00;90842.16;5061492;28;20037;-80
2024/02/23 01:54:15;;;;;;;0.82;0.80;;;;;;;3.39;100.00;90847.59;5062088;28;20047;-80
2024/02/23 01:56:42;;;;;;;1.00;0.60;;;;;;;3.36;100.00;90843.78;5059383;28;20033;-80
2024/02/23 01:59:11;;;;;;;0.98;0.80;;;;;;;3.30;100.00;90834.53;5043466;28;20299;-79
2024/02/23 02:01:36;;;;;;;0.70;0.70;;;;;;;3.33;100.00;90834.75;5033937;28;20071;-79
2024/02/23 02:04:02;;;;;;;0.75;0.75;;;;;;;3.28;100.00;90842.56;5043337;28;20064;-79
2024/02/23 02:06:28;;;;;;;0.50;0.50;;;;;;;3.27;100.00;90835.13;5057885;28;20097;-79
2024/02/23 02:08:54;;;;;;;0.63;0.63;;;;;;;3.25;100.00;90826.88;5068568;28;20029;-80
2024/02/23 02:11:19;;;;;;;3.30;0.80;;;;;;;3.24;100.00;90820.13;5062447;28;20572;-79
2024/02/23 02:13:45;;;;;;;0.40;0.40;;;;;;;3.51;100.00;90815.09;5055092;28;20059;-79
2024/02/23 02:16:11;;;;;;;0.57;0.50;;;;;;;3.54;100.00;90811.16;5070262;28;20600;-79
2024/02/23 02:18:37;;;;;;;0.50;0.50;;;;;;;3.52;100.00;90801.09;5060578;28;20044;-79
2024/02/23 02:21:03;;;;;;;14.98;1.13;;;;;;;3.35;100.00;90800.84;5052067;28;20032;-80
2024/02/23 02:23:28;;;;;;;18.25;1.42;;;;;;;3.20;100.00;90801.06;5059129;28;20033;-79
2024/02/23 02:25:55;;;;;;;1.08;0.90;;;;;;;3.14;100.00;90795.22;5063896;28;20489;-79
2024/02/23 02:28:22;;;;;;;0.93;0.90;;;;;;;3.06;100.00;90791.47;5064966;28;20063;-80
2024/02/23 02:30:49;;;;;;;1.27;1.02;;;;;;;3.01;100.00;90778.59;5065193;28;20036;-80
2024/02/23 02:33:15;;;;;;;0.95;0.88;;;;;;;3.05;100.00;90782.16;5053899;28;20029;-79
2024/02/23 02:35:40;;;;;;;1.77;0.70;;;;;;;3.08;100.00;90781.56;5058420;28;20060;-80
2024/02/23 02:38:06;;;;;;;0.68;0.68;;;;;;;3.01;100.00;90786.34;5062386;28;20394;-79
2024/02/23 02:40:31;;;;;;;0.80;0.70;;;;;;;3.03;100.00;90780.91;5036087;28;20040;-79
2024/02/23 02:42:57;;;;;;;0.52;0.52;;;;;;;3.14;100.00;90769.34;5057023;28;20029;-79
2024/02/23 02:45:23;;;;;;;9.73;1.10;;;;;;;2.99;100.00;90770.34;5065400;28;20029;-79
2024/02/23 02:47:49;;;;;;;85.90;2.25;;;;;;;2.94;100.00;90760.09;5065073;28;20047;-79
2024/02/23 02:50:15;;;;;;;18.50;1.40;;;;;;;2.94;100.00;90754.91;5052874;28;20089;-79
2024/02/23 02:52:40;;;;;;;13.75;0.93;;;;;;;2.93;100.00;90766.31;5055638;28;20061;-79
2024/02/23 02:55:06;;;;;;;0.93;0.80;;;;;;;2.93;100.00;90763.72;5044034;28;20051;-79
2024/02/23 02:57:32;;;;;;;8.77;0.93;;;;;;;2.90;100.00;90759.09;5063419;28;20036;-80
2024/02/23 02:59:57;;;;;;;24.27;1.17;;;;;;;2.94;100.00;90762.66;5060562;28;20029;-80
2024/02/23 03:02:23;;;;;;;1.40;0.57;;;;;;;3.00;100.00;90758.22;5057475;28;20464;-79
2024/02/23 03:04:50;;;;;;;20.63;1.20;;;;;;;2.86;100.00;90758.13;5063108;28;20049;-80
2024/02/23 03:07:18;;;;;;;22.83;1.30;;;;;;;2.92;100.00;90757.00;5047492;28;20041;-79
2024/02/23 03:09:44;;;;;;;29.23;1.42;;;;;;;2.78;100.00;90745.84;5067914;28;20083;-80
2024/02/23 03:12:10;;;;;;;120.18;3.05;;;;;;;2.75;100.00;90748.97;5064016;28;20037;-79
2024/02/23 03:14:39;;;;;;;23.67;1.30;;;;;;;2.67;100.00;90746.00;5056739;28;20120;-79
2024/02/23 03:17:05;;;;;;;0.50;0.50;;;;;;;2.60;100.00;90743.00;5063304;28;20032;-79
2024/02/23 03:19:32;;;;;;;5.82;0.90;;;;;;;2.65;100.00;90744.75;5068457;28;20516;-79
2024/02/23 03:21:58;;;;;;;19.85;0.93;;;;;;;2.76;100.00;90732.44;5056018;28;20317;-80
2024/02/23 03:24:23;;;;;;;7.13;0.80;;;;;;;3.05;100.00;90727.09;5067641;28;20101;-79
2024/02/23 03:26:49;;;;;;;50.75;2.08;;;;;;;2.91;100.00;90742.56;5062425;28;20051;-79
2024/02/23 03:29:14;;;;;;;114.97;3.20;;;;;;;2.83;100.00;90722.53;5038755;28;20086;-79
2024/02/23 03:31:40;;;;;;;74.95;2.10;;;;;;;2.78;100.00;90740.69;5060517;28;20025;-79
2024/02/23 03:34:06;;;;;;;36.80;1.65;;;;;;;2.71;100.00;90741.81;5042605;28;20492;-79
2024/02/23 03:36:31;;;;;;;6.97;0.60;;;;;;;2.61;100.00;90741.97;5059094;28;20040;-80
2024/02/23 03:38:57;;;;;;;0.50;0.50;;;;;;;2.62;100.00;90746.06;5050697;28;20080;-79
2024/02/23 03:41:22;;;;;;;4.53;0.90;;;;;;;2.67;100.00;90737.47;5035455;28;20131;-79
2024/02/23 03:43:48;;;;;;;1.02;0.90;;;;;;;2.60;100.00;90745.56;5057537;28;20068;-80
2024/02/23 03:46:14;;;;;;;8.80;1.00;;;;;;;2.59;100.00;90748.44;5045822;28;20124;-79
2024/02/23 03:48:40;;;;;;;0.90;0.70;;;;;;;2.64;100.00;90743.22;5065847;28;20064;-79
2024/02/23 03:51:08;;;;;;;0.82;0.75;;;;;;;2.55;100.00;90745.66;5055031;28;20412;-79
2024/02/23 03:53:33;;;;;;;0.55;0.55;;;;;;;2.49;100.00;90739.78;5048446;28;20512;-79
2024/02/23 03:55:59;;;;;;;0.60;0.60;;;;;;;2.50;100.00;90745.72;5062704;28;20121;-79
2024/02/23 03:58:25;;;;;;;0.50;0.50;;;;;;;2.51;100.00;90752.41;5065663;28;20097;-79
2024/02/23 04:00:51;;;;;;;0.43;0.43;;;;;;;2.46;100.00;90740.34;5071337;28;20448;-79
2024/02/23 04:03:17;;;;;;;0.50;0.50;;;;;;;2.41;100.00;90737.84;5062168;28;20029;-79
2024/02/23 04:05:42;;;;;;;0.95;0.60;;;;;;;2.39;100.00;90732.19;5023361;28;20057;-80
2024/02/23 04:08:08;;;;;;;0.70;0.70;;;;;;;2.40;100.00;90735.53;5048114;28;20029;-79
2024/02/23 04:10:34;;;;;;;0.57;0.57;;;;;;;2.39;100.00;90734.75;5052705;28;20037;-80
2024/02/23 04:13:01;;;;;;;4.20;0.80;;;;;;;2.56;100.00;90743.84;5049831;28;20409;-80
2024/02/23 04:15:26;;;;;;;9.48;0.88;;;;;;;2.60;100.00;90748.16;5043187;28;20124;-80
2024/02/23 04:17:52;;;;;;;32.50;1.38;;;;;;;2.45;100.00;90738.03;5042746;28;20112;-79
2024/02/23 04:20:17;;;;;;;3.13;0.93;;;;;;;2.31;100.00;90732.78;5035283;28;20034;-79
2024/02/23 04:22:43;;;;;;;0.85;0.85;;;;;;;2.32;100.00;90725.81;5048182;28;20568;-78
2024/02/23 04:25:08;;;;;;;0.85;0.82;;;;;;;2.30;100.00;90726.09;5043294;28;20471;-79
2024/02/23 04:27:34;;;;;;;1.13;1.02;;;;;;;2.31;100.00;90706.22;5048620;28;20030;-79
2024/02/23 04:30:00;;;;;;;1.27;0.90;;;;;;;2.28;100.00;90704.97;5051857;28;20037;-79
2024/02/23 04:32:25;;;;;;;0.80;0.80;;;;;;;2.22;100.00;90688.75;5049466;28;20079;-79
2024/02/23 04:34:51;;;;;;;1.02;0.93;;;;;;;2.23;100.00;90690.31;5041583;28;20049;-79
2024/02/23 04:37:17;;;;;;;5.78;0.90;;;;;;;2.19;100.00;90694.47;5054638;28;20041;-79
2024/02/23 04:39:43;;;;;;;0.80;0.80;;;;;;;2.45;100.00;90681.22;5040160;28;20128;-79
2024/02/23 04:42:09;;;;;;;6.60;0.90;;;;;;;2.40;100.00;90665.78;5048669;28;20037;-79
2024/02/23 04:44:35;;;;;;;2.58;0.60;;;;;;;2.53;100.00;90659.16;5050037;28;20034;-79
2024/02/23 04:47:01;;;;;;;4.05;0.90;;;;;;;2.42;100.00;90655.97;5053470;28;20025;-78
2024/02/23 04:49:27;;;;;;;1.00;0.90;;;;;;;2.33;100.00;90652.47;5050078;28;20508;-79
2024/02/23 04:51:53;;;;;;;3.72;0.50;;;;;;;2.41;100.00;90654.41;5048949;28;20034;-79
2024/02/23 04:54:19;;;;;;;1.98;0.75;;;;;;;2.56;100.00;90656.00;5040230;28;20075;-80
2024/02/23 04:56:44;;;;;;;8.77;1.08;;;;;;;2.46;100.00;90656.94;5044885;28;20497;-80
2024/02/23 04:59:10;;;;;;;0.80;0.80;;;;;;;2.35;100.00;90664.06;5044809;28;20037;-79
2024/02/23 05:01:37;;;;;;;0.60;0.60;;;;;;;2.34;100.00;90659.16;5055068;28;20036;-80
2024/02/23 05:04:03;;;;;;;0.57;0.57;;;;;;;2.35;100.00;90656.31;5050871;28;20063;-79
2024/02/23 05:06:29;;;;;;;1.65;0.88;;;;;;;2.40;100.00;90645.13;5036824;28;20101;-80
2024/02/23 05:08:55;;;;;;;0.60;0.60;;;;;;;2.28;100.00;90661.81;5041739;28;20036;-80
2024/02/23 05:11:21;;;;;;;0.50;0.50;;;;;;;2.28;100.00;90659.25;5035960;28;20047;-79
2024/02/23 05:13:47;;;;;;;0.80;0.80;;;;;;;2.21;100.00;90663.22;5069423;28;20085;-80
2024/02/23 05:16:15;;;;;;;2.17;0.80;;;;;;;2.07;100.00;90655.38;5063115;28;20412;-80
2024/02/23 05:18:41;;;;;;;0.77;0.77;;;;;;;2.04;100.00;90655.97;5073696;28;20051;-80
2024/02/23 05:21:07;;;;;;;2.50;0.73;;;;;;;2.17;100.00;90670.75;5049529;28;20041;-80
2024/02/23 05:23:33;;;;;;;0.85;0.85;;;;;;;2.35;100.00;90676.19;5067800;28;20029;-81
2024/02/23 05:25:59;;;;;;;0.63;0.60;;;;;;;2.22;100.00;90686.16;5031655;28;20024;-80
2024/02/23 05:28:24;;;;;;;0.60;0.60;;;;;;;2.10;100.00;90696.16;5070887;28;20028;-80
2024/02/23 05:30:51;;;;;;;0.75;0.73;;;;;;;2.07;100.00;90692.31;5059879;28;20051;-79
2024/02/23 05:33:20;;;;;;;7.88;1.08;;;;;;;2.14;100.00;90686.81;5049347;28;20036;-80
2024/02/23 05:35:48;;;;;;;8.27;1.08;;;;;;;2.20;100.00;90685.69;5061199;28;20483;-80
2024/02/23 05:38:14;;;;;;;59.83;2.00;;;;;;;2.19;100.00;90693.72;5060961;28;20045;-79
2024/02/23 05:40:40;;;;;;;116.13;3.17;;;;;;;2.06;100.00;90693.34;5053895;28;20041;-80
2024/02/23 05:43:06;;;;;;;89.80;2.88;;;;;;;2.21;100.00;90697.56;5053536;28;20029;-80
2024/02/23 05:45:31;;;;;;;20.27;1.48;;;;;;;2.08;100.00;90693.06;5050296;28;20167;-82
2024/02/23 05:47:57;;;;;;;95.32;3.00;;;;;;;1.92;100.00;90678.84;5050399;28;20025;-81
2024/02/23 05:50:22;;;;;;;60.45;2.00;;;;;;;1.94;100.00;90679.31;5047253;28;20028;-82
2024/02/23 05:52:48;;;;;;;1.67;1.15;;;;;;;1.93;100.00;90673.38;5060282;28;20091;-81
2024/02/23 05:55:14;;;;;;;0.93;0.80;;;;;;;1.96;100.00;90667.69;5052561;28;20372;-81
2024/02/23 05:57:40;;;;;;;1.83;1.00;;;;;;;2.00;100.00;90655.72;5057663;28;20047;-82
2024/02/23 06:00:07;;;;;;;0.98;0.90;;;;;;;1.98;100.00;90652.69;5058923;28;20516;-80
2024/02/23 06:02:38;;;;;;;0.77;0.77;;;;;;;2.09;100.00;90648.13;5039942;28;20033;-82
2024/02/23 06:05:07;;;;;;;0.47;0.47;;;;;;;2.10;100.00;90646.34;5054321;28;20094;-81
2024/02/23 06:07:34;;;;;;;57.22;2.28;;;;;;;2.00;100.00;90635.09;5051206;28;20071;-81
2024/02/23 06:10:00;;;;;;;28.95;1.50;;;;;;;1.99;100.00;90612.16;5054570;28;20063;-81
2024/02/23 06:12:26;;;;;;;0.80;0.80;;;;;;;1.99;100.00;90581.19;5064869;28;20041;-80
2024/02/23 06:14:52;;;;;;;1.08;0.63;;;;;;;2.20;100.00;90582.41;5038857;28;20537;-82
2024/02/23 06:17:18;;;;;;;0.65;0.63;;;;;;;2.14;100.00;90596.47;5042315;28;20081;-80
2024/02/23 06:19:44;;;;;;;0.70;0.70;;;;;;;2.15;100.00;90589.47;5042619;28;20400;-81
2024/02/23 06:22:13;;;;;;;0.60;0.60;;;;;;;2.20;100.00;90591.97;5054671;28;20041;-81
2024/02/23 06:24:39;;;;;;;0.60;0.60;;;;;;;2.32;100.00;90591.53;5036547;28;20035;-82
2024/02/23 06:27:04;;;;;;;0.73;0.70;;;;;;;2.27;100.00;90600.13;5032651;28;20041;-83
2024/02/23 06:29:30;;;;;;;1.00;0.90;;;;;;;2.19;100.00;90613.69;5026194;28;20111;-83
2024/02/23 06:31:56;;;;;;;0.80;0.80;;;;;;;2.14;100.00;90606.78;5055453;28;20060;-81
2024/02/23 06:34:21;;;;;;;0.70;0.70;;;;;;;2.12;100.00;90614.03;5054197;28;20104;-79
2024/02/23 06:36:47;;;;;;;0.60;0.60;;;;;;;2.15;100.00;90621.22;5052546;28;20029;-82
2024/02/23 06:39:13;;;;;;;0.47;0.47;;;;;;;2.19;100.00;90609.28;5043914;28;20037;-81
2024/02/23 06:41:39;;;;;;;0.50;0.50;;;;;;;2.20;100.00;90603.06;5056818;28;20413;-83
2024/02/23 06:44:05;;;;;;;1.10;0.80;;;;;;;2.19;100.00;90598.19;5055421;28;20492;-82
2024/02/23 06:46:31;;;;;;;0.63;0.63;;;;;;;2.34;100.00;90608.28;5051771;28;20460;-83
2024/02/23 06:48:56;;;;;;;0.70;0.70;;;;;;;2.26;100.00;90596.78;5054197;28;20037;-82
2024/02/23 06:51:22;;;;;;;2.08;0.77;;;;;;;2.18;100.00;90600.00;5052991;28;20377;-83
2024/02/23 06:53:47;;;;;;;0.85;0.75;;;;;;;2.15;100.00;90608.31;5059935;28;20072;-82
2024/02/23 06:56:13;;;;;;;0.85;0.70;;;;;;;2.24;100.00;90623.94;5059487;28;20079;-82
2024/02/23 06:58:39;;;;;;;0.70;0.70;;;;;;;2.17;100.00;90629.44;5060164;28;20129;-83
2024/02/23 07:01:06;;;;;;;0.60;0.60;;;;;;;2.15;100.00;90626.38;5056121;28;20362;-83
2024/02/23 07:03:35;;;;;;;0.68;0.68;;;;;;;2.23;100.00;90633.50;5059613;28;20060;-81
2024/02/23 07:06:00;;;;;;;5.40;1.10;;;;;;;2.31;100.00;90642.41;5027193;28;20531;-82
2024/02/23 07:08:26;;;;;;;1.38;1.10;;;;;;;2.22;100.00;90637.13;5033395;28;20057;-83
2024/02/23 07:10:51;;;;;;;1.42;1.17;;;;;;;2.24;100.00;90645.34;5057431;28;20041;-82
2024/02/23 07:13:17;;;;;;;1.23;0.95;;;;;;;2.27;100.00;90644.03;5044274;28;20058;-82
2024/02/23 07:15:43;;;;;;;0.75;0.75;;;;;;;2.27;100.00;90624.16;5033802;28;20060;-82
2024/02/23 07:18:09;;;;;;;0.70;0.70;;;;;;;2.31;100.00;90623.59;5019657;28;20036;-82
2024/02/23 07:20:38;;;;;;;1.13;1.02;;;;;;;2.32;100.00;90636.22;5038512;28;20043;-84
2024/02/23 07:23:04;;;;;;;1.92;1.10;;;;;;;2.29;100.00;90642.69;5042880;28;20052;-82
2024/02/23 07:25:30;;;;;;;1.52;1.10;;;;;;;2.33;100.00;90644.72;5034028;28;20505;-82
2024/02/23 07:33:37;;;;;;;1.15;1.05;;;;;;;2.01;100.00;90604.91;4967989;23;20083;-92
2024/02/23 07:36:08;;;;;;;1.10;1.00;;;;;;;2.14;100.00;90629.22;4919144;29;20569;-93
2024/02/23 07:38:43;;;;;;;0.70;0.70;;;;;;;2.15;100.00;90630.78;4932306;29;20047;-91
2024/02/23 07:41:09;;;;;;;1.00;0.90;;;;;;;2.11;100.00;90614.31;4930532;29;20028;-91
2024/02/23 07:43:50;;;;;;;0.70;0.70;;;;;;;2.24;100.00;90635.03;4954616;28;20030;-93
2024/02/23 07:46:22;;;;;;;0.80;0.80;;;;;;;2.33;100.00;90647.31;4931040;29;20077;-92
2024/02/23 07:48:58;;;;;;;55.75;2.25;;;;;;;2.54;100.00;90651.13;4920253;28;20039;-93
2024/02/23 07:51:34;;;;;;;;;;;;;;;;;;;;;
2024/02/23 07:54:03;;;;;;;135.15;4.07;;;;;;;1.93;100.00;90621.00;4949353;28;20043;-94
2024/02/23 08:48:54;;;;;;;5.90;4.00;;;;;;;2.24;100.00;90598.13;5203811;24;20055;-94
2024/02/23 08:51:20;;;;;;;5.60;3.70;;;;;;;2.27;100.00;90600.91;4757118;30;20189;-93
2024/02/23 08:54:04;;;;;;;4.55;2.78;;;;;;;2.39;100.00;90625.53;4780572;30;20054;-94
2024/02/23 08:56:42;;;;;;;3.60;2.30;;;;;;;2.34;100.00;90623.00;4760325;30;20047;-95
2024/02/23 08:59:20;;;;;;;2.78;1.98;;;;;;;2.39;100.00;90625.53;4749838;30;20068;-92
2024/02/23 09:01:52;;;;;;;1.92;1.40;;;;;;;2.40;100.00;90621.91;4768068;30;20066;-93
2024/02/23 09:04:27;;;;;;;2.13;1.38;;;;;;;2.39;100.00;90625.53;4774139;30;20082;-93
2024/02/23 09:06:53;;;;;;;1.73;1.20;;;;;;;2.58;100.00;90646.91;4774004;30;20051;-92
2024/02/23 09:09:29;;;;;;;199.32;4.05;;;;;;;2.49;100.00;90646.03;4774323;30;20496;-92
2024/02/23 09:11:59;;;;;;;149.95;4.15;;;;;;;2.18;100.00;90614.72;4775813;30;20366;-92
2024/02/23 09:14:29;;;;;;;161.20;4.63;;;;;;;2.11;100.00;90603.97;4785047;30;20306;-91
2024/02/23 09:17:12;;;;;;;;;;;;;;;;;;;;;
2024/02/23 09:19:38;;;;;;;86.78;3.00;;;;;;;2.52;100.00;90655.78;4772556;30;20043;-94
2024/02/23 09:22:04;;;;;;;112.13;3.50;;;;;;;2.45;100.00;90655.38;4786383;30;20038;-92
2024/02/23 09:24:41;;;;;;;174.88;4.60;;;;;;;2.08;100.00;90605.31;4779251;30;20048;-94
2024/02/23 09:27:10;;;;;;;3.55;1.60;;;;;;;2.33;100.00;90632.56;4762915;30;20048;-96
2024/02/23 09:32:27;;;;;;;1.95;1.30;;;;;;;2.32;100.00;90618.16;4770544;30;20335;-93
2024/02/23 09:34:58;;;;;;;1.75;1.25;;;;;;;2.41;100.00;90610.50;4766672;30;20505;-94
2024/02/23 09:37:29;;;;;;;1.98;1.20;;;;;;;2.53;100.00;90610.84;4754148;30;20063;-95
2024/02/23 09:40:07;;;;;;;;;;;;;;;;;;;;;
2024/02/23 09:42:38;;;;;;;1.85;1.13;;;;;;;2.74;100.00;90616.44;4775889;30;20043;-95
2024/02/23 09:45:32;;;;;;;282.85;6.07;;;;;;;2.60;100.00;90620.81;4774057;30;20244;-94
2024/02/23 09:48:03;;;;;;;23.75;1.50;;;;;;;2.80;100.00;90651.50;4773488;30;20043;-92
2024/02/23 09:50:35;;;;;;;73.00;2.28;;;;;;;2.75;100.00;90646.41;4789595;29;20066;-94
2024/02/23 09:53:08;;;;;;;197.55;4.60;;;;;;;2.62;100.00;90642.72;4787465;30;20062;-91
2024/02/23 09:55:41;;;;;;;71.95;2.42;;;;;;;2.74;100.00;90636.34;4773056;30;20055;-95
2024/02/23 09:58:08;;;;;;;29.65;2.13;;;;;;;2.57;100.00;90609.25;4753858;30;20058;-95
2024/02/23 10:00:38;;;;;;;5.22;1.52;;;;;;;2.63;100.00;90607.31;4777806;30;20035;-96
2024/02/23 10:03:04;;;;;;;14.95;1.63;;;;;;;2.78;100.00;90619.25;4749502;30;20044;-94
2024/02/23 10:05:35;;;;;;;39.95;2.33;;;;;;;2.66;100.00;90620.47;4768090;30;20040;-96
2024/02/23 10:08:02;;;;;;;97.05;2.95;;;;;;;2.82;100.00;90633.91;4747579;30;20462;-94
2024/02/23 10:10:34;;;;;;;104.70;3.05;;;;;;;2.52;100.00;90598.97;4777169;30;20106;-94
2024/02/23 10:13:01;;;;;;;170.18;4.43;;;;;;;2.46;100.00;90600.13;4770908;30;20515;-94
2024/02/23 10:15:31;;;;;;;118.03;3.42;;;;;;;2.86;100.00;90640.03;4771430;29;20040;-93
2024/02/23 10:17:56;;;;;;;84.85;3.65;;;;;;;2.46;100.00;90592.38;4758713;30;20664;-93
2024/02/23 10:20:22;;;;;;;2.22;1.35;;;;;;;2.62;100.00;90608.38;4761337;30;20044;-92
2024/02/23 10:22:48;;;;;;;1.17;1.08;;;;;;;2.38;100.00;90586.00;4766501;30;20048;-93
2024/02/23 10:25:14;;;;;;;2.03;1.35;;;;;;;2.62;100.00;90606.56;4750724;30;20259;-94
2024/02/23 10:27:42;;;;;;;1.98;1.40;;;;;;;2.68;100.00;90595.09;4750161;30;20031;-92
2024/02/23 10:30:11;;;;;;;223.07;5.60;;;;;;;2.62;100.00;90611.72;4789161;29;20096;-90
2024/02/23 10:32:38;;;;;;;2.72;1.70;;;;;;;2.59;100.00;90586.47;4788200;29;20031;-90
2024/02/23 10:35:10;;;;;;;1.80;1.13;;;;;;;2.93;100.00;90629.34;4768844;29;20054;-88
2024/02/23 10:37:36;;;;;;;1.83;1.25;;;;;;;2.67;100.00;90611.63;4791678;29;20035;-92
2024/02/23 10:40:04;;;;;;;42.22;2.63;;;;;;;2.86;100.00;90623.75;4740059;30;20040;-91
2024/02/23 10:42:34;;;;;;;78.03;3.00;;;;;;;2.89;100.00;90636.88;4761056;30;20122;-91
2024/02/23 10:45:01;;;;;;;2.05;1.30;;;;;;;2.83;100.00;90635.41;4775325;30;20052;-91
2024/02/23 10:47:30;;;;;;;1.63;1.17;;;;;;;3.06;100.00;90632.97;4764372;30;20355;-92
2024/02/23 10:49:59;;;;;;;1.77;1.10;;;;;;;2.99;100.00;90640.34;4766024;30;20420;-92
2024/02/23 10:52:26;;;;;;;1.50;1.20;;;;;;;2.93;100.00;90624.16;4765741;30;20054;-90
2024/02/23 10:54:53;;;;;;;1.52;1.00;;;;;;;3.02;100.00;90634.63;4740761;30;20117;-92
2024/02/23 10:57:19;;;;;;;1.17;1.00;;;;;;;3.04;100.00;90641.03;4745256;30;20509;-91
2024/02/23 10:59:46;;;;;;;1.35;0.90;;;;;;;3.08;100.00;90647.13;4770495;30;20105;-91
2024/02/23 11:02:16;;;;;;;0.52;0.52;;;;;;;3.05;100.00;90642.56;4762639;30;20448;-88
2024/02/23 11:04:46;;;;;;;1.00;0.90;;;;;;;3.03;100.00;90644.66;4763779;30;20035;-91
2024/02/23 11:07:14;;;;;;;1.65;1.00;;;;;;;3.32;100.00;90648.81;4752850;30;20050;-91
2024/02/23 11:09:40;;;;;;;4.82;1.17;;;;;;;3.05;100.00;90621.88;4763213;30;20040;-91
2024/02/23 11:12:06;;;;;;;1.50;1.17;;;;;;;3.24;100.00;90646.88;4774116;30;20429;-91
2024/02/23 11:14:36;;;;;;;1.23;0.90;;;;;;;3.28;100.00;90653.03;4744233;30;20044;-91
2024/02/23 11:17:03;;;;;;;2.55;1.05;;;;;;;3.37;100.00;90659.06;4746264;30;20047;-91
2024/02/23 11:19:36;;;;;;;1.58;1.20;;;;;;;3.37;100.00;90640.97;4761715;30;20039;-91
2024/02/23 11:22:02;;;;;;;1.38;1.08;;;;;;;3.52;100.00;90648.44;4767627;30;20087;-90
2024/02/23 11:24:30;;;;;;;2.28;1.35;;;;;;;3.52;100.00;90634.75;4761533;30;20477;-91
2024/02/23 11:27:00;;;;;;;1.23;0.95;;;;;;;3.63;100.00;90637.91;4761624;30;20083;-91
2024/02/23 11:29:29;;;;;;;0.90;0.80;;;;;;;3.68;100.00;90632.63;4762243;30;20093;-91
2024/02/23 11:32:00;;;;;;;0.70;0.68;;;;;;;3.91;100.00;90630.88;4762311;30;20404;-90
2024/02/23 11:34:30;;;;;;;1.25;0.90;;;;;;;4.10;100.00;90654.81;4758080;30;20051;-91
2024/02/23 11:36:57;;;;;;;1.35;1.00;;;;;;;3.97;100.00;90651.19;4759542;30;20051;-90
2024/02/23 11:39:23;;;;;;;2.15;0.90;;;;;;;3.97;100.00;90640.84;4757900;30;20379;-90
2024/02/23 11:41:50;;;;;;;1.23;1.13;;;;;;;3.93;100.00;90624.34;4721583;30;20052;-91
2024/02/23 11:44:17;;;;;;;1.67;1.08;;;;;;;4.17;100.00;90631.88;4749294;30;20502;-90
2024/02/23 11:46:43;;;;;;;651.55;17.73;;;;;;;4.07;100.00;90623.56;4762017;29;20466;-91
2024/02/23 11:49:09;;;;;;;26.20;2.13;;;;;;;4.06;100.00;90622.78;4745062;30;20059;-91
2024/02/23 11:51:35;;;;;;;1.63;1.00;;;;;;;3.93;100.00;90608.81;4760757;30;20457;-91
2024/02/23 11:54:01;;;;;;;2.38;1.48;;;;;;;4.02;100.00;90611.47;4758840;30;20694;-90
2024/02/23 11:56:28;;;;;;;1.50;1.05;;;;;;;4.07;100.00;90618.38;4729207;30;20048;-91
2024/02/23 11:58:55;;;;;;;0.70;0.70;;;;;;;4.08;100.00;90610.31;4762358;30;20083;-92
2024/02/23 12:01:28;;;;;;;;;;;;;;;4.31;100.00;90631.84;4764420;30;20040;-90
2024/02/23 12:03:55;;;;;;;0.60;0.60;;;;;;;4.44;100.00;90632.88;4771207;30;19925;-90
2024/02/23 12:06:21;;;;;;;0.57;0.57;;;;;;;4.45;100.00;90623.25;4747061;30;20044;-91
2024/02/23 12:08:47;;;;;;;0.40;0.40;;;;;;;4.44;100.00;90616.56;4778482;30;20051;-90
2024/02/23 12:11:14;;;;;;;0.63;0.57;;;;;;;4.51;100.00;90616.91;4780295;30;20414;-90
2024/02/23 12:13:39;;;;;;;0.70;0.70;;;;;;;4.64;100.00;90620.47;4769519;30;20050;-90
2024/02/23 12:16:08;;;;;;;0.52;0.52;;;;;;;4.56;100.00;90596.06;4785522;29;20031;-89
2024/02/23 12:18:34;;;;;;;1.05;0.85;;;;;;;4.77;100.00;90604.91;4792746;29;20039;-89
2024/02/23 12:21:09;;;;;;;1.73;1.20;;;;;;;4.74;100.00;90612.47;4771462;29;20039;-89
2024/02/23 12:23:42;;;;;;;2.28;1.20;;;;;;;4.53;100.00;90597.41;4792309;29;20028;-88
2024/02/23 12:26:13;;;;;;;0.82;0.73;;;;;;;4.62;100.00;90587.09;4788743;29;20063;-90
2024/02/23 12:28:40;;;;;;;0.82;0.80;;;;;;;4.54;100.00;90578.19;4781682;30;20039;-90
2024/02/23 12:31:06;;;;;;;0.60;0.60;;;;;;;4.72;100.00;90586.84;4777482;30;20172;-89
2024/02/23 12:33:37;;;;;;;0.93;0.70;;;;;;;4.81;100.00;90579.13;4774283;30;20036;-90
2024/02/23 12:36:04;;;;;;;0.77;0.70;;;;;;;4.95;100.00;90566.88;4798468;29;20055;-90
2024/02/23 12:38:30;;;;;;;1.05;0.70;;;;;;;4.97;100.00;90556.16;4790480;29;20055;-90